createdAt,value
2018-08-01T05:32:16.110Z,997.6
2018-08-01T05:32:36.313Z,997.6
2018-08-01T05:32:56.511Z,997.6
2018-08-01T05:33:16.662Z,997.6
2018-08-01T05:33:36.884Z,997.6
2018-08-01T05:33:57.086Z,997.6
2018-08-01T05:34:18.055Z,997.7
2018-08-01T05:34:38.201Z,997.7
2018-08-01T05:34:58.383Z,997.7
2018-08-01T05:35:18.548Z,997.7
2018-08-01T05:35:38.705Z,997.7
2018-08-01T05:35:58.897Z,997.8
2018-08-01T05:36:19.045Z,997.8
2018-08-01T05:36:39.216Z,997.8
2018-08-01T05:36:59.361Z,997.8
2018-08-01T05:37:19.581Z,997.8
2018-08-01T05:37:39.736Z,997.8
2018-08-01T05:37:59.892Z,997.8
2018-08-01T05:38:20.135Z,997.9
2018-08-01T05:38:40.357Z,997.8
2018-08-01T05:39:00.495Z,997.8
2018-08-01T05:39:20.673Z,997.8
2018-08-01T05:39:40.810Z,997.8
2018-08-01T05:40:01.048Z,997.8
2018-08-01T05:40:21.179Z,997.9
2018-08-01T05:40:41.354Z,997.8
2018-08-01T05:41:02.057Z,997.8
2018-08-01T05:41:22.212Z,997.8
2018-08-01T05:41:42.493Z,997.8
2018-08-01T05:42:02.585Z,997.8
2018-08-01T05:42:22.763Z,997.8
2018-08-01T05:42:43.754Z,997.8
2018-08-01T05:43:03.926Z,997.8
2018-08-01T05:43:24.080Z,997.7
2018-08-01T05:43:44.222Z,997.8
2018-08-01T05:44:04.383Z,997.8
2018-08-01T05:44:24.534Z,997.8
2018-08-01T05:44:44.698Z,997.8
2018-08-01T05:45:04.875Z,997.8
2018-08-01T05:45:25.057Z,997.8
2018-08-01T05:45:45.174Z,997.8
2018-08-01T05:46:05.304Z,997.8
2018-08-01T05:46:25.450Z,997.8
2018-08-01T05:46:45.633Z,997.8
2018-08-01T05:47:05.833Z,997.8
2018-08-01T05:47:25.980Z,997.8
2018-08-01T05:47:46.241Z,997.8
2018-08-01T05:48:06.402Z,997.8
2018-08-01T05:48:26.549Z,997.8
2018-08-01T05:48:46.728Z,997.8
2018-08-01T05:49:06.916Z,997.8
2018-08-01T05:49:27.101Z,997.8
2018-08-01T05:49:47.281Z,997.8
2018-08-01T05:50:07.462Z,997.8
2018-08-01T05:50:27.639Z,997.8
2018-08-01T05:50:47.852Z,997.8
2018-08-01T05:51:08.024Z,997.8
2018-08-01T05:51:28.199Z,997.8
2018-08-01T05:51:48.343Z,997.8
2018-08-01T05:52:08.506Z,997.8
2018-08-01T05:52:28.652Z,997.8
2018-08-01T05:52:48.805Z,997.8
2018-08-01T05:53:08.989Z,997.8
2018-08-01T05:53:29.137Z,997.8
2018-08-01T05:53:49.289Z,997.8
2018-08-01T05:54:09.470Z,997.8
2018-08-01T05:54:29.652Z,997.8
2018-08-01T05:54:49.802Z,997.8
2018-08-01T05:55:09.954Z,997.8
2018-08-01T05:55:30.104Z,997.8
2018-08-01T05:55:50.284Z,997.8
2018-08-01T05:56:10.393Z,997.8
2018-08-01T05:56:30.536Z,997.8
2018-08-01T05:56:50.707Z,997.8
2018-08-01T05:57:10.885Z,997.8
2018-08-01T05:57:31.174Z,997.8
2018-08-01T05:57:51.350Z,997.8
2018-08-01T05:58:11.627Z,997.8
2018-08-01T05:58:31.929Z,997.8
2018-08-01T05:58:52.735Z,997.7
2018-08-01T05:59:12.916Z,997.8
2018-08-01T05:59:33.029Z,997.8
2018-08-01T05:59:53.197Z,997.8
2018-08-01T06:00:13.391Z,997.7
2018-08-01T06:00:33.569Z,997.7
2018-08-01T06:00:53.746Z,997.7
2018-08-01T06:01:13.926Z,997.8
2018-08-01T06:01:34.172Z,997.7
2018-08-01T06:01:54.360Z,997.7
2018-08-01T06:02:14.552Z,997.7
2018-08-01T06:02:34.740Z,997.7
2018-08-01T06:02:54.941Z,997.8
2018-08-01T06:03:15.116Z,997.7
2018-08-01T06:03:35.239Z,997.7
2018-08-01T06:03:55.479Z,997.7
2018-08-01T06:04:16.231Z,997.7
2018-08-01T06:04:36.402Z,997.7
2018-08-01T06:04:56.555Z,997.7
2018-08-01T06:05:16.757Z,997.7
2018-08-01T06:05:36.916Z,997.7
2018-08-01T06:05:57.057Z,997.7
2018-08-01T06:06:17.275Z,997.7
2018-08-01T06:06:37.507Z,997.7
2018-08-01T06:06:57.702Z,997.7
2018-08-01T06:07:17.852Z,997.7
2018-08-01T06:07:37.997Z,997.7
2018-08-01T06:07:58.209Z,997.7
2018-08-01T06:08:18.382Z,997.7
2018-08-01T06:08:38.574Z,997.7
2018-08-01T06:08:58.709Z,997.7
2018-08-01T06:09:18.871Z,997.8
2018-08-01T06:09:39.054Z,997.8
2018-08-01T06:09:59.213Z,997.8
2018-08-01T06:10:20.456Z,997.8
2018-08-01T06:10:40.632Z,997.8
2018-08-01T06:11:00.909Z,997.8
2018-08-01T06:11:21.177Z,997.8
2018-08-01T06:11:41.574Z,997.8
2018-08-01T06:12:01.786Z,997.8
2018-08-01T06:12:22.060Z,997.8
2018-08-01T06:12:43.149Z,997.8
2018-08-01T06:13:03.342Z,997.8
2018-08-01T06:13:23.613Z,997.9
2018-08-01T06:13:43.998Z,997.8
2018-08-01T06:14:04.161Z,997.9
2018-08-01T06:14:25.224Z,997.8
2018-08-01T06:14:45.393Z,997.8
2018-08-01T06:15:05.537Z,997.8
2018-08-01T06:15:25.733Z,997.8
2018-08-01T06:15:45.935Z,997.8
2018-08-01T06:16:06.079Z,997.8
2018-08-01T06:16:26.295Z,997.8
2018-08-01T06:16:46.452Z,997.8
2018-08-01T06:17:06.608Z,997.8
2018-08-01T06:17:26.829Z,997.8
2018-08-01T06:17:47.011Z,997.8
2018-08-01T06:18:07.160Z,997.8
2018-08-01T06:18:27.351Z,997.9
2018-08-01T06:18:47.574Z,997.9
2018-08-01T06:19:07.750Z,997.9
2018-08-01T06:19:27.952Z,997.9
2018-08-01T06:19:48.129Z,997.9
2018-08-01T06:20:08.274Z,997.9
2018-08-01T06:20:28.453Z,997.9
2018-08-01T06:20:48.745Z,997.9
2018-08-01T06:21:08.946Z,997.9
2018-08-01T06:21:29.106Z,997.9
2018-08-01T06:21:49.381Z,997.9
2018-08-01T06:22:09.534Z,997.9
2018-08-01T06:22:29.710Z,997.9
2018-08-01T06:22:49.875Z,997.9
2018-08-01T06:23:10.040Z,997.9
2018-08-01T06:23:30.206Z,998
2018-08-01T06:23:50.335Z,998
2018-08-01T06:24:10.504Z,998
2018-08-01T06:24:30.676Z,998
2018-08-01T06:24:50.909Z,998
2018-08-01T06:25:11.081Z,998
2018-08-01T06:25:31.245Z,998
2018-08-01T06:25:51.403Z,998
2018-08-01T06:26:11.556Z,998
2018-08-01T06:26:31.722Z,998
2018-08-01T06:26:51.892Z,998
2018-08-01T06:27:12.043Z,998
2018-08-01T06:27:32.189Z,998
2018-08-01T06:27:52.381Z,998
2018-08-01T06:28:13.140Z,997.9
2018-08-01T06:28:33.297Z,998
2018-08-01T06:28:53.463Z,997.9
2018-08-01T06:29:13.613Z,997.9
2018-08-01T06:29:33.780Z,997.9
2018-08-01T06:29:53.920Z,997.9
2018-08-01T06:30:14.154Z,997.9
2018-08-01T06:30:34.314Z,997.9
2018-08-01T06:30:54.503Z,997.9
2018-08-01T06:31:14.658Z,997.9
2018-08-01T06:31:34.857Z,997.9
2018-08-01T06:31:55.006Z,998
2018-08-01T06:32:15.183Z,997.9
2018-08-01T06:32:35.331Z,997.9
2018-08-01T06:32:55.482Z,997.9
2018-08-01T06:33:15.648Z,997.9
2018-08-01T06:33:35.797Z,998
2018-08-01T06:33:55.958Z,997.9
2018-08-01T06:34:16.121Z,998
2018-08-01T06:34:36.260Z,998
2018-08-01T06:34:56.482Z,998
2018-08-01T06:35:16.710Z,998
2018-08-01T06:35:36.867Z,998
2018-08-01T06:35:57.027Z,998
2018-08-01T06:36:17.200Z,998
2018-08-01T06:36:37.476Z,998
2018-08-01T06:36:57.647Z,998
2018-08-01T06:37:17.819Z,998
2018-08-01T06:37:37.994Z,998
2018-08-01T06:37:58.147Z,998
2018-08-01T06:38:18.296Z,998
2018-08-01T06:38:38.672Z,998.1
2018-08-01T06:38:58.887Z,998.1
2018-08-01T06:39:19.039Z,998.1
2018-08-01T06:39:39.201Z,998.1
2018-08-01T06:39:59.894Z,998.1
2018-08-01T06:40:20.071Z,998.1
2018-08-01T06:40:40.268Z,998.1
2018-08-01T06:41:00.432Z,998.1
2018-08-01T06:41:20.581Z,998.1
2018-08-01T06:41:40.787Z,998.1
2018-08-01T06:42:01.002Z,998.1
2018-08-01T06:42:21.162Z,998.1
2018-08-01T06:42:41.325Z,998
2018-08-01T06:43:01.542Z,998
2018-08-01T06:43:21.706Z,998
2018-08-01T06:43:41.886Z,998
2018-08-01T06:44:02.040Z,998
2018-08-01T06:44:22.210Z,998.1
2018-08-01T06:44:42.374Z,998.1
2018-08-01T06:45:02.553Z,998
2018-08-01T06:45:22.736Z,998.1
2018-08-01T06:45:42.951Z,998.1
2018-08-01T06:46:03.120Z,998.1
2018-08-01T06:46:23.285Z,998.1
2018-08-01T06:46:43.596Z,998.1
2018-08-01T06:47:03.765Z,998.1
2018-08-01T06:47:24.000Z,998.1
2018-08-01T06:47:44.163Z,998.1
2018-08-01T06:48:04.316Z,998.1
2018-08-01T06:48:24.476Z,998.1
2018-08-01T06:48:44.648Z,998.1
2018-08-01T06:49:04.808Z,998.1
2018-08-01T06:49:25.007Z,998.1
2018-08-01T06:49:45.175Z,998.1
2018-08-01T06:50:05.412Z,998.1
2018-08-01T06:50:25.573Z,998.1
2018-08-01T06:50:45.761Z,998.1
2018-08-01T06:51:05.964Z,998.1
2018-08-01T06:51:26.105Z,998.1
2018-08-01T06:51:46.315Z,998.1
2018-08-01T06:52:06.505Z,998.1
2018-08-01T06:52:26.689Z,998.1
2018-08-01T06:52:46.848Z,998.1
2018-08-01T06:53:07.010Z,998.1
2018-08-01T06:53:27.202Z,998.1
2018-08-01T06:53:47.356Z,998.1
2018-08-01T06:54:07.604Z,998.2
2018-08-01T06:54:27.788Z,998.2
2018-08-01T06:54:47.937Z,998.2
2018-08-01T06:55:08.231Z,998.1
2018-08-01T06:55:28.400Z,998.1
2018-08-01T06:55:48.591Z,998.2
2018-08-01T06:56:28.388Z,998.2
2018-08-01T06:56:48.569Z,998.2
2018-08-01T06:57:08.759Z,998.2
2018-08-01T06:57:28.938Z,998.2
2018-08-01T06:57:49.164Z,998.2
2018-08-01T06:58:09.359Z,998.2
2018-08-01T06:58:29.515Z,998.2
2018-08-01T06:58:49.652Z,998.2
2018-08-01T06:59:09.867Z,998.2
2018-08-01T06:59:30.147Z,998.2
2018-08-01T06:59:50.325Z,998.2
2018-08-01T07:00:10.503Z,998.2
2018-08-01T07:00:30.729Z,998.2
2018-08-01T07:00:50.969Z,998.2
2018-08-01T07:01:11.188Z,998.2
2018-08-01T07:01:31.332Z,998.2
2018-08-01T07:01:51.495Z,998.2
2018-08-01T07:02:11.660Z,998.2
2018-08-01T07:02:31.836Z,998.2
2018-08-01T07:02:51.975Z,998.2
2018-08-01T07:03:12.192Z,998.2
2018-08-01T07:03:32.373Z,998.2
2018-08-01T07:03:52.564Z,998.2
2018-08-01T07:04:12.807Z,998.2
2018-08-01T07:04:33.032Z,998.2
2018-08-01T07:04:53.195Z,998.2
2018-08-01T07:05:13.376Z,998.2
2018-08-01T07:05:33.543Z,998.2
2018-08-01T07:05:53.688Z,998.3
2018-08-01T07:06:13.833Z,998.3
2018-08-01T07:06:34.061Z,998.3
2018-08-01T07:06:54.653Z,998.2
2018-08-01T07:07:14.904Z,998.2
2018-08-01T07:07:35.125Z,998.2
2018-08-01T07:07:55.343Z,998.2
2018-08-01T07:08:15.495Z,998.2
2018-08-01T07:08:35.645Z,998.2
2018-08-01T07:08:55.800Z,998.2
2018-08-01T07:09:16.597Z,998.2
2018-08-01T07:09:36.756Z,998.2
2018-08-01T07:09:56.940Z,998.2
2018-08-01T07:10:17.109Z,998.2
2018-08-01T07:10:37.261Z,998.2
2018-08-01T07:10:57.424Z,998.2
2018-08-01T07:11:17.569Z,998.2
2018-08-01T07:11:37.721Z,998.2
2018-08-01T07:11:57.901Z,998.2
2018-08-01T07:12:18.031Z,998.2
2018-08-01T07:12:38.198Z,998.2
2018-08-01T07:12:58.405Z,998.2
2018-08-01T07:13:18.570Z,998.2
2018-08-01T07:13:38.709Z,998.2
2018-08-01T07:13:58.816Z,998.2
2018-08-01T07:14:19.017Z,998.2
2018-08-01T07:14:39.187Z,998.2
2018-08-01T07:14:59.715Z,998.2
2018-08-01T07:15:19.904Z,998.2
2018-08-01T07:15:40.107Z,998.3
2018-08-01T07:16:00.292Z,998.3
2018-08-01T07:16:20.500Z,998.3
2018-08-01T07:16:41.874Z,998.3
2018-08-01T07:17:02.185Z,998.3
2018-08-01T07:17:22.370Z,998.3
2018-08-01T07:17:42.542Z,998.3
2018-08-01T07:18:02.704Z,998.3
2018-08-01T07:18:22.842Z,998.3
2018-08-01T07:18:43.005Z,998.3
2018-08-01T07:19:03.165Z,998.3
2018-08-01T07:19:23.324Z,998.3
2018-08-01T07:19:43.487Z,998.3
2018-08-01T07:20:03.646Z,998.3
2018-08-01T07:20:23.846Z,998.3
2018-08-01T07:20:45.295Z,998.3
2018-08-01T07:21:06.783Z,998.3
2018-08-01T07:21:27.012Z,998.3
2018-08-01T07:21:47.170Z,998.3
2018-08-01T07:22:07.822Z,998.3
2018-08-01T07:22:28.107Z,998.3
2018-08-01T07:22:48.344Z,998.3
2018-08-01T07:23:08.523Z,998.3
2018-08-01T07:23:29.457Z,998.3
2018-08-01T07:23:49.651Z,998.3
2018-08-01T07:24:10.984Z,998.3
2018-08-01T07:24:31.712Z,998.3
2018-08-01T07:24:51.906Z,998.3
2018-08-01T07:25:12.073Z,998.3
2018-08-01T07:25:32.228Z,998.3
2018-08-01T07:25:52.381Z,998.3
2018-08-01T07:26:13.328Z,998.3
2018-08-01T07:26:34.244Z,998.3
2018-08-01T07:26:55.979Z,998.3
2018-08-01T07:27:16.159Z,998.3
2018-08-01T07:27:36.317Z,998.3
2018-08-01T07:27:56.502Z,998.3
2018-08-01T07:28:16.838Z,998.3
2018-08-01T07:28:37.121Z,998.3
2018-08-01T07:28:58.104Z,998.3
2018-08-01T07:29:18.868Z,998.3
2018-08-01T07:29:39.902Z,998.3
2018-08-01T07:30:00.123Z,998.3
2018-08-01T07:30:20.442Z,998.3
2018-08-01T07:30:41.530Z,998.3
2018-08-01T07:31:01.819Z,998.3
2018-08-01T07:31:23.069Z,998.3
2018-08-01T07:31:43.377Z,998.3
2018-08-01T07:32:04.187Z,998.3
2018-08-01T07:32:25.187Z,998.2
2018-08-01T07:32:45.568Z,998.2
2018-08-01T07:33:06.616Z,998.3
2018-08-01T07:33:27.660Z,998.2
2018-08-01T07:33:48.730Z,998.3
2018-08-01T07:34:09.225Z,998.2
2018-08-01T07:34:29.795Z,998.2
2018-08-01T07:34:50.207Z,998.3
2018-08-01T07:35:10.724Z,998.3
2018-08-01T07:35:31.176Z,998.2
2018-08-01T07:35:51.424Z,998.2
2018-08-01T07:36:11.677Z,998.2
2018-08-01T07:36:31.984Z,998.2
2018-08-01T07:36:52.126Z,998.2
2018-08-01T07:37:12.300Z,998.2
2018-08-01T07:37:32.423Z,998.2
2018-08-01T07:37:52.625Z,998.2
2018-08-01T07:38:12.823Z,998.2
2018-08-01T07:38:33.005Z,998.2
2018-08-01T07:38:53.229Z,998.2
2018-08-01T07:39:13.474Z,998.2
2018-08-01T07:39:33.629Z,998.2
2018-08-01T07:39:53.888Z,998.2
2018-08-01T07:40:14.148Z,998.2
2018-08-01T07:40:34.539Z,998.2
2018-08-01T07:40:54.796Z,998.2
2018-08-01T07:41:15.047Z,998.2
2018-08-01T07:41:35.234Z,998.2
2018-08-01T07:41:55.554Z,998.2
2018-08-01T07:42:15.795Z,998.2
2018-08-01T07:42:36.126Z,998.2
2018-08-01T07:42:56.352Z,998.2
2018-08-01T07:43:16.532Z,998.1
2018-08-01T07:43:36.694Z,998.2
2018-08-01T07:43:56.862Z,998.2
2018-08-01T07:44:17.051Z,998.2
2018-08-01T07:44:38.065Z,998.3
2018-08-01T07:44:58.296Z,998.3
2018-08-01T07:45:18.442Z,998.3
2018-08-01T07:45:38.792Z,998.2
2018-08-01T07:45:59.151Z,998.3
2018-08-01T07:46:19.455Z,998.3
2018-08-01T07:46:39.644Z,998.3
2018-08-01T07:46:59.886Z,998.3
2018-08-01T07:47:20.079Z,998.3
2018-08-01T07:47:40.367Z,998.3
2018-08-01T07:48:00.680Z,998.4
2018-08-01T07:48:20.959Z,998.3
2018-08-01T07:48:41.181Z,998.3
2018-08-01T07:49:01.377Z,998.3
2018-08-01T07:49:21.716Z,998.3
2018-08-01T07:49:41.936Z,998.4
2018-08-01T07:50:02.277Z,998.4
2018-08-01T07:50:22.543Z,998.3
2018-08-01T07:50:43.431Z,998.3
2018-08-01T07:51:03.599Z,998.4
2018-08-01T07:51:23.858Z,998.4
2018-08-01T07:51:44.072Z,998.4
2018-08-01T07:52:04.272Z,998.3
2018-08-01T07:52:25.007Z,998.4
2018-08-01T07:52:45.267Z,998.4
2018-08-01T07:53:05.458Z,998.4
2018-08-01T07:53:25.668Z,998.4
2018-08-01T07:53:46.566Z,998.5
2018-08-01T07:54:06.747Z,998.4
2018-08-01T07:54:26.941Z,998.4
2018-08-01T07:54:47.127Z,998.4
2018-08-01T07:55:07.367Z,998.4
2018-08-01T07:55:27.522Z,998.4
2018-08-01T07:55:48.524Z,998.4
2018-08-01T07:56:08.702Z,998.4
2018-08-01T07:56:28.891Z,998.4
2018-08-01T07:56:49.156Z,998.4
2018-08-01T07:57:09.306Z,998.4
2018-08-01T07:57:29.497Z,998.4
2018-08-01T07:57:49.659Z,998.4
2018-08-01T07:58:09.824Z,998.4
2018-08-01T07:58:29.983Z,998.4
2018-08-01T07:58:50.197Z,998.4
2018-08-01T07:59:10.358Z,998.5
2018-08-01T07:59:30.582Z,998.4
2018-08-01T07:59:50.809Z,998.5
2018-08-01T08:00:12.379Z,998.5
2018-08-01T08:00:32.542Z,998.4
2018-08-01T08:00:52.729Z,998.4
2018-08-01T08:01:12.919Z,998.5
2018-08-01T08:01:33.101Z,998.5
2018-08-01T08:01:53.291Z,998.5
2018-08-01T08:02:13.473Z,998.5
2018-08-01T08:02:33.627Z,998.5
2018-08-01T08:02:53.781Z,998.5
2018-08-01T08:03:14.707Z,998.5
2018-08-01T08:03:35.519Z,998.5
2018-08-01T08:03:55.707Z,998.5
2018-08-01T08:04:16.572Z,998.5
2018-08-01T08:04:37.265Z,998.5
2018-08-01T08:04:57.412Z,998.5
2018-08-01T08:05:17.578Z,998.5
2018-08-01T08:05:38.663Z,998.5
2018-08-01T08:05:58.828Z,998.6
2018-08-01T08:06:19.061Z,998.5
2018-08-01T08:06:39.274Z,998.5
2018-08-01T08:06:59.453Z,998.5
2018-08-01T08:07:19.636Z,998.5
2018-08-01T08:07:39.824Z,998.6
2018-08-01T08:08:00.005Z,998.5
2018-08-01T08:08:21.122Z,998.5
2018-08-01T08:08:41.305Z,998.5
2018-08-01T08:09:02.445Z,998.5
2018-08-01T08:09:22.623Z,998.5
2018-08-01T08:09:42.823Z,998.5
2018-08-01T08:10:03.649Z,998.5
2018-08-01T11:40:59.482Z,997.9
2018-08-01T11:41:19.662Z,997.9
2018-08-01T11:41:39.832Z,997.9
2018-08-01T11:42:00.013Z,997.9
2018-08-01T11:42:20.193Z,997.9
2018-08-01T11:42:40.348Z,997.9
2018-08-01T11:43:00.485Z,997.9
2018-08-01T11:43:20.663Z,997.9
2018-08-01T11:43:40.817Z,997.9
2018-08-01T11:44:00.970Z,997.9
2018-08-01T11:44:21.141Z,998
2018-08-01T11:44:41.300Z,997.9
2018-08-01T11:45:01.511Z,998
2018-08-01T11:45:21.618Z,997.9
2018-08-01T11:45:41.780Z,998
2018-08-01T11:46:01.953Z,997.9
2018-08-01T11:46:22.118Z,998
2018-08-01T11:46:42.305Z,997.9
2018-08-01T11:47:02.460Z,997.9
2018-08-01T11:47:22.639Z,998
2018-08-01T11:47:42.823Z,997.9
2018-08-01T11:48:02.964Z,997.8
2018-08-01T11:48:23.122Z,997.8
2018-08-01T11:48:43.292Z,997.8
2018-08-01T11:49:03.491Z,997.8
2018-08-01T11:49:23.686Z,997.8
2018-08-01T11:49:43.852Z,997.8
2018-08-01T11:50:04.106Z,997.8
2018-08-01T11:50:24.210Z,997.8
2018-08-01T11:50:44.364Z,997.8
2018-08-01T11:51:04.623Z,997.8
2018-08-01T11:51:24.767Z,997.8
2018-08-01T11:51:44.930Z,997.7
2018-08-01T11:52:05.128Z,997.8
2018-08-01T11:52:25.283Z,997.8
2018-08-01T11:52:45.506Z,997.7
2018-08-01T11:53:05.683Z,997.7
2018-08-01T11:53:25.808Z,997.7
2018-08-01T11:53:45.959Z,997.7
2018-08-01T11:54:06.159Z,997.7
2018-08-01T11:54:26.282Z,997.7
2018-08-01T11:54:46.467Z,997.8
2018-08-01T11:55:07.146Z,997.7
2018-08-01T11:55:27.320Z,997.7
2018-08-01T11:55:47.480Z,997.7
2018-08-01T11:56:07.681Z,997.7
2018-08-01T11:56:27.833Z,997.7
2018-08-01T11:56:47.994Z,997.7
2018-08-01T11:57:08.218Z,997.6
2018-08-01T11:57:28.298Z,997.7
2018-08-01T11:57:48.442Z,997.7
2018-08-01T11:58:08.615Z,997.7
2018-08-01T11:58:28.776Z,997.7
2018-08-01T11:58:48.933Z,997.7
2018-08-01T11:59:09.100Z,997.7
2018-08-01T11:59:29.312Z,997.6
2018-08-01T11:59:49.509Z,997.6
2018-08-01T12:00:09.657Z,997.7
2018-08-01T12:00:29.810Z,997.7
2018-08-01T12:00:49.951Z,997.7
2018-08-01T12:01:10.144Z,997.7
2018-08-01T12:01:30.284Z,997.6
2018-08-01T12:01:50.495Z,997.6
2018-08-01T12:02:10.725Z,997.6
2018-08-01T12:02:30.869Z,997.6
2018-08-01T12:02:51.026Z,997.6
2018-08-01T12:03:11.210Z,997.6
2018-08-01T12:03:31.390Z,997.6
2018-08-01T12:03:51.530Z,997.6
2018-08-01T12:04:11.696Z,997.6
2018-08-01T12:04:31.894Z,997.6
2018-08-01T12:04:52.067Z,997.6
2018-08-01T12:05:12.299Z,997.5
2018-08-01T12:05:32.515Z,997.6
2018-08-01T12:05:52.751Z,997.5
2018-08-01T12:06:12.961Z,997.6
2018-08-01T12:06:33.133Z,997.5
2018-08-01T12:06:53.516Z,997.5
2018-08-01T12:07:13.536Z,997.5
2018-08-01T12:07:33.703Z,997.5
2018-08-01T12:07:53.865Z,997.5
2018-08-01T12:08:14.035Z,997.6
2018-08-01T12:08:34.140Z,997.5
2018-08-01T12:08:54.343Z,997.6
2018-08-01T12:09:14.511Z,997.6
2018-08-01T12:09:34.760Z,997.6
2018-08-01T12:09:54.921Z,997.6
2018-08-01T12:10:15.103Z,997.6
2018-08-01T12:10:35.275Z,997.6
2018-08-01T12:10:55.441Z,997.6
2018-08-01T12:11:15.653Z,997.6
2018-08-01T12:11:35.817Z,997.6
2018-08-01T12:11:55.969Z,997.6
2018-08-01T12:12:16.148Z,997.6
2018-08-01T12:12:36.318Z,997.6
2018-08-01T12:12:56.474Z,997.6
2018-08-01T12:13:16.645Z,997.6
2018-08-01T12:13:36.858Z,997.6
2018-08-01T12:13:56.956Z,997.6
2018-08-01T12:14:17.062Z,997.6
2018-08-01T12:14:37.216Z,997.6
2018-08-01T12:14:57.509Z,997.6
2018-08-01T12:15:17.814Z,997.6
2018-08-01T12:15:37.977Z,997.6
2018-08-01T12:15:58.202Z,997.6
2018-08-01T12:16:18.356Z,997.6
2018-08-01T12:16:38.519Z,997.6
2018-08-01T12:16:58.704Z,997.6
2018-08-01T12:17:18.936Z,997.6
2018-08-01T12:17:39.094Z,997.6
2018-08-01T12:17:59.252Z,997.6
2018-08-01T12:18:19.452Z,997.6
2018-08-01T12:18:39.534Z,997.6
2018-08-01T12:18:59.713Z,997.6
2018-08-01T12:19:19.880Z,997.5
2018-08-01T12:19:40.069Z,997.5
2018-08-01T12:20:00.205Z,997.5
2018-08-01T12:20:20.441Z,997.5
2018-08-01T12:20:40.848Z,997.5
2018-08-01T12:21:01.000Z,997.5
2018-08-01T12:21:21.129Z,997.5
2018-08-01T12:21:41.287Z,997.5
2018-08-01T12:22:01.459Z,997.5
2018-08-01T12:22:21.640Z,997.5
2018-08-01T12:22:41.788Z,997.5
2018-08-01T12:23:01.949Z,997.4
2018-08-01T12:23:22.092Z,997.5
2018-08-01T12:23:42.264Z,997.4
2018-08-01T12:24:02.467Z,997.4
2018-08-01T12:24:22.664Z,997.4
2018-08-01T12:24:42.827Z,997.4
2018-08-01T12:25:03.005Z,997.4
2018-08-01T12:25:23.180Z,997.4
2018-08-01T12:25:43.334Z,997.4
2018-08-01T12:26:03.510Z,997.4
2018-08-01T12:26:23.670Z,997.4
2018-08-01T12:26:43.837Z,997.4
2018-08-01T12:27:04.054Z,997.4
2018-08-01T12:27:24.187Z,997.4
2018-08-01T12:27:46.018Z,997.4
2018-08-01T12:28:06.166Z,997.4
2018-08-01T12:28:26.325Z,997.4
2018-08-01T12:28:46.480Z,997.4
2018-08-01T12:29:06.694Z,997.4
2018-08-01T12:29:26.838Z,997.4
2018-08-01T12:29:47.292Z,997.4
2018-08-01T12:30:07.488Z,997.4
2018-08-01T12:30:27.674Z,997.3
2018-08-01T12:30:48.259Z,997.3
2018-08-01T12:31:08.454Z,997.3
2018-08-01T12:31:28.604Z,997.3
2018-08-01T12:31:48.758Z,997.4
2018-08-01T12:32:08.932Z,997.4
2018-08-01T12:32:29.082Z,997.4
2018-08-01T12:32:49.478Z,997.3
2018-08-01T12:33:09.636Z,997.3
2018-08-01T12:33:29.797Z,997.3
2018-08-01T12:33:49.996Z,997.4
2018-08-01T12:34:10.184Z,997.4
2018-08-01T12:34:30.422Z,997.4
2018-08-01T12:34:50.666Z,997.4
2018-08-01T12:35:10.818Z,997.3
2018-08-01T12:35:30.958Z,997.3
2018-08-01T12:35:51.159Z,997.3
2018-08-01T12:36:11.486Z,997.3
2018-08-01T12:36:31.689Z,997.3
2018-08-01T12:36:51.857Z,997.4
2018-08-01T12:37:12.012Z,997.3
2018-08-01T12:37:32.218Z,997.3
2018-08-01T12:37:52.379Z,997.3
2018-08-01T12:38:12.594Z,997.3
2018-08-01T12:38:32.713Z,997.3
2018-08-01T12:38:52.911Z,997.3
2018-08-01T12:39:13.060Z,997.3
2018-08-01T12:39:33.207Z,997.3
2018-08-01T12:39:53.434Z,997.3
2018-08-01T12:40:13.558Z,997.3
2018-08-01T12:40:33.733Z,997.3
2018-08-01T12:40:53.941Z,997.3
2018-08-01T12:41:14.980Z,997.3
2018-08-01T12:41:35.127Z,997.3
2018-08-01T12:41:55.323Z,997.3
2018-08-01T12:42:15.584Z,997.3
2018-08-01T12:42:35.689Z,997.4
2018-08-01T12:42:55.850Z,997.4
2018-08-01T12:43:15.983Z,997.3
2018-08-01T12:43:36.148Z,997.3
2018-08-01T12:43:57.072Z,997.3
2018-08-01T12:44:17.233Z,997.3
2018-08-01T12:44:37.407Z,997.3
2018-08-01T12:44:57.569Z,997.3
2018-08-01T12:45:17.757Z,997.3
2018-08-01T12:45:37.910Z,997.2
2018-08-01T12:45:58.076Z,997.3
2018-08-01T12:46:18.287Z,997.3
2018-08-01T12:46:38.448Z,997.3
2018-08-01T12:46:58.606Z,997.3
2018-08-01T12:47:18.915Z,997.3
2018-08-01T12:47:39.055Z,997.3
2018-08-01T12:47:59.248Z,997.3
2018-08-01T12:48:19.438Z,997.3
2018-08-01T12:48:39.586Z,997.3
2018-08-01T12:48:59.883Z,997.3
2018-08-01T12:49:20.138Z,997.3
2018-08-01T12:49:40.307Z,997.3
2018-08-01T12:50:00.451Z,997.3
2018-08-01T12:50:20.886Z,997.3
2018-08-01T12:50:41.040Z,997.3
2018-08-01T12:51:01.289Z,997.3
2018-08-01T12:51:21.465Z,997.3
2018-08-01T12:51:41.712Z,997.3
2018-08-01T12:52:02.018Z,997.3
2018-08-01T12:52:22.276Z,997.3
2018-08-01T12:52:42.400Z,997.2
2018-08-01T12:53:02.555Z,997.2
2018-08-01T12:53:22.721Z,997.2
2018-08-01T12:53:42.998Z,997.2
2018-08-01T12:54:03.182Z,997.2
2018-08-01T12:54:23.340Z,997.2
2018-08-01T12:54:43.499Z,997.2
2018-08-01T12:55:03.691Z,997.1
2018-08-01T12:55:23.881Z,997.2
2018-08-01T12:55:44.164Z,997.2
2018-08-01T12:56:04.365Z,997.2
2018-08-01T12:56:24.531Z,997.2
2018-08-01T12:56:44.685Z,997.1
2018-08-01T12:57:04.837Z,997.2
2018-08-01T12:57:25.016Z,997.2
2018-08-01T12:57:45.187Z,997.2
2018-08-01T12:58:05.344Z,997.2
2018-08-01T12:58:25.492Z,997.2
2018-08-01T12:58:45.688Z,997.2
2018-08-01T12:59:05.897Z,997.2
2018-08-01T12:59:26.044Z,997.2
2018-08-01T12:59:46.198Z,997.2
2018-08-01T13:00:06.384Z,997.2
2018-08-01T13:00:26.549Z,997.2
2018-08-01T13:00:46.685Z,997.2
2018-08-01T13:01:06.885Z,997.2
2018-08-01T13:01:27.028Z,997.2
2018-08-01T13:01:47.186Z,997.2
2018-08-01T13:02:07.344Z,997.2
2018-08-01T13:02:27.503Z,997.2
2018-08-01T13:02:47.672Z,997.1
2018-08-01T13:03:07.814Z,997.2
2018-08-01T13:03:27.967Z,997.2
2018-08-01T13:03:48.166Z,997.2
2018-08-01T13:04:08.302Z,997.2
2018-08-01T13:04:28.470Z,997.2
2018-08-01T13:04:48.646Z,997.2
2018-08-01T13:05:08.821Z,997.2
2018-08-01T13:05:29.047Z,997.2
2018-08-01T13:05:49.225Z,997.2
2018-08-01T13:06:09.422Z,997.2
2018-08-01T13:06:29.640Z,997.2
2018-08-01T13:06:49.835Z,997.1
2018-08-01T13:07:09.998Z,997.2
2018-08-01T13:07:30.205Z,997.2
2018-08-01T13:07:50.376Z,997.2
2018-08-01T13:08:10.536Z,997.1
2018-08-01T13:08:30.712Z,997.2
2018-08-01T13:08:50.906Z,997.1
2018-08-01T13:09:11.059Z,997.1
2018-08-01T13:09:31.243Z,997.1
2018-08-01T13:09:51.557Z,997.2
2018-08-01T13:10:11.771Z,997.1
2018-08-01T13:10:32.053Z,997.1
2018-08-01T13:10:52.199Z,997.1
2018-08-01T13:11:12.297Z,997.1
2018-08-01T13:11:32.442Z,997.1
2018-08-01T13:11:52.596Z,997.1
2018-08-01T13:12:12.772Z,997.1
2018-08-01T13:12:32.942Z,997.1
2018-08-01T13:12:53.081Z,997.1
2018-08-01T13:13:13.249Z,997.1
2018-08-01T13:13:33.482Z,997.1
2018-08-01T13:13:53.618Z,997.2
2018-08-01T13:14:13.786Z,997.2
2018-08-01T13:14:33.972Z,997.1
2018-08-01T13:14:54.190Z,997.1
2018-08-01T13:15:14.390Z,997.1
2018-08-01T13:15:34.541Z,997
2018-08-01T13:15:54.701Z,997.1
2018-08-01T13:16:14.866Z,997
2018-08-01T13:16:35.018Z,997
2018-08-01T13:16:55.162Z,997
2018-08-01T13:17:15.357Z,997
2018-08-01T13:17:35.508Z,997
2018-08-01T13:17:55.698Z,997
2018-08-01T13:18:16.541Z,997.1
2018-08-01T13:18:37.541Z,997.2
2018-08-01T13:18:58.221Z,997.1
2018-08-01T13:19:18.443Z,997.1
2018-08-01T13:19:38.591Z,997.1
2018-08-01T13:19:58.741Z,997.1
2018-08-01T13:20:18.939Z,997.1
2018-08-01T13:20:39.150Z,997.1
2018-08-01T13:20:59.363Z,997.1
2018-08-01T13:21:19.550Z,997.1
2018-08-01T13:21:39.736Z,997.1
2018-08-01T13:21:59.912Z,997.1
2018-08-01T13:22:20.317Z,997.1
2018-08-01T13:22:40.609Z,997.2
2018-08-01T13:23:00.778Z,997.2
2018-08-01T13:23:21.035Z,997.2
2018-08-01T13:23:41.186Z,997.2
2018-08-01T13:24:01.354Z,997.2
2018-08-01T13:24:22.056Z,997.1
2018-08-01T13:24:42.256Z,997.2